sensor_id;sensor_type;location;lat;lon;timestamp;P1;durP1;ratioP1;P2;durP2;ratioP2
9042;SDS011;4556;49.150;8.808;2022-08-11T00:02:26;2.90;;;1.73;;
9042;SDS011;4556;49.150;8.808;2022-08-11T00:05:00;1.97;;;1.50;;
9042;SDS011;4556;49.150;8.808;2022-08-11T00:07:33;4.57;;;1.70;;
9042;SDS011;4556;49.150;8.808;2022-08-11T00:10:08;1.60;;;1.40;;
9042;SDS011;4556;49.150;8.808;2022-08-11T00:12:37;4.37;;;1.47;;
9042;SDS011;4556;49.150;8.808;2022-08-11T00:15:05;1.47;;;1.20;;
9042;SDS011;4556;49.150;8.808;2022-08-11T00:17:33;2.27;;;1.70;;
9042;SDS011;4556;49.150;8.808;2022-08-11T00:20:04;3.97;;;1.80;;
9042;SDS011;4556;49.150;8.808;2022-08-11T00:22:36;5.37;;;1.63;;
9042;SDS011;4556;49.150;8.808;2022-08-11T00:25:07;5.47;;;1.70;;
9042;SDS011;4556;49.150;8.808;2022-08-11T00:27:36;1.77;;;1.60;;
9042;SDS011;4556;49.150;8.808;2022-08-11T00:30:08;5.83;;;1.70;;
9042;SDS011;4556;49.150;8.808;2022-08-11T00:32:36;2.93;;;1.50;;
9042;SDS011;4556;49.150;8.808;2022-08-11T00:35:06;2.37;;;1.50;;
9042;SDS011;4556;49.150;8.808;2022-08-11T00:37:38;3.30;;;1.60;;
9042;SDS011;4556;49.150;8.808;2022-08-11T00:40:14;4.00;;;1.50;;
9042;SDS011;4556;49.150;8.808;2022-08-11T00:42:51;3.17;;;1.80;;
9042;SDS011;4556;49.150;8.808;2022-08-11T00:45:26;5.67;;;1.70;;
9042;SDS011;4556;49.150;8.808;2022-08-11T00:48:00;2.20;;;1.40;;
9042;SDS011;4556;49.150;8.808;2022-08-11T00:50:35;2.17;;;1.73;;
9042;SDS011;4556;49.150;8.808;2022-08-11T00:56:13;3.63;;;1.70;;
9042;SDS011;4556;49.150;8.808;2022-08-11T01:02:10;2.00;;;1.57;;
9042;SDS011;4556;49.150;8.808;2022-08-11T01:08:03;2.33;;;1.50;;
9042;SDS011;4556;49.150;8.808;2022-08-11T01:20:36;1.50;;;1.40;;
9042;SDS011;4556;49.150;8.808;2022-08-11T01:23:56;1.70;;;1.60;;
9042;SDS011;4556;49.150;8.808;2022-08-11T01:27:09;4.53;;;1.90;;
9042;SDS011;4556;49.150;8.808;2022-08-11T01:30:03;2.60;;;1.67;;
9042;SDS011;4556;49.150;8.808;2022-08-11T01:39:17;2.80;;;1.50;;
9042;SDS011;4556;49.150;8.808;2022-08-11T01:45:34;2.87;;;1.70;;
9042;SDS011;4556;49.150;8.808;2022-08-11T01:48:07;2.17;;;1.77;;
9042;SDS011;4556;49.150;8.808;2022-08-11T01:50:50;2.63;;;1.90;;
9042;SDS011;4556;49.150;8.808;2022-08-11T01:53:29;2.20;;;1.70;;
9042;SDS011;4556;49.150;8.808;2022-08-11T01:56:14;3.23;;;1.83;;
9042;SDS011;4556;49.150;8.808;2022-08-11T01:58:57;3.80;;;1.80;;
9042;SDS011;4556;49.150;8.808;2022-08-11T02:01:37;4.00;;;1.80;;
9042;SDS011;4556;49.150;8.808;2022-08-11T02:04:16;1.90;;;1.60;;
9042;SDS011;4556;49.150;8.808;2022-08-11T02:06:52;2.50;;;2.07;;
9042;SDS011;4556;49.150;8.808;2022-08-11T02:12:47;2.93;;;1.50;;
9042;SDS011;4556;49.150;8.808;2022-08-11T02:15:19;2.83;;;1.70;;
9042;SDS011;4556;49.150;8.808;2022-08-11T02:17:59;6.10;;;1.80;;
9042;SDS011;4556;49.150;8.808;2022-08-11T02:20:33;3.87;;;2.23;;
9042;SDS011;4556;49.150;8.808;2022-08-11T02:23:25;2.40;;;1.80;;
9042;SDS011;4556;49.150;8.808;2022-08-11T02:26:20;1.90;;;1.70;;
9042;SDS011;4556;49.150;8.808;2022-08-11T02:28:56;2.70;;;1.60;;
9042;SDS011;4556;49.150;8.808;2022-08-11T02:31:38;4.20;;;1.63;;
9042;SDS011;4556;49.150;8.808;2022-08-11T02:34:29;2.80;;;1.70;;
9042;SDS011;4556;49.150;8.808;2022-08-11T02:37:09;2.53;;;1.77;;
9042;SDS011;4556;49.150;8.808;2022-08-11T02:39:45;2.40;;;1.67;;
9042;SDS011;4556;49.150;8.808;2022-08-11T02:42:24;3.90;;;1.80;;
9042;SDS011;4556;49.150;8.808;2022-08-11T02:44:58;2.73;;;1.80;;
9042;SDS011;4556;49.150;8.808;2022-08-11T02:47:41;4.97;;;1.87;;
9042;SDS011;4556;49.150;8.808;2022-08-11T02:50:36;2.83;;;1.83;;
9042;SDS011;4556;49.150;8.808;2022-08-11T02:53:08;3.10;;;1.90;;
9042;SDS011;4556;49.150;8.808;2022-08-11T02:55:43;2.50;;;1.67;;
9042;SDS011;4556;49.150;8.808;2022-08-11T02:58:29;4.03;;;2.10;;
9042;SDS011;4556;49.150;8.808;2022-08-11T03:01:05;2.93;;;2.00;;
9042;SDS011;4556;49.150;8.808;2022-08-11T03:03:45;3.00;;;1.80;;
9042;SDS011;4556;49.150;8.808;2022-08-11T03:06:25;2.77;;;1.60;;
9042;SDS011;4556;49.150;8.808;2022-08-11T03:08:59;2.23;;;1.70;;
9042;SDS011;4556;49.150;8.808;2022-08-11T03:11:44;3.17;;;1.70;;
9042;SDS011;4556;49.150;8.808;2022-08-11T03:14:44;3.27;;;1.80;;
9042;SDS011;4556;49.150;8.808;2022-08-11T03:17:33;3.97;;;1.70;;
9042;SDS011;4556;49.150;8.808;2022-08-11T03:20:10;4.37;;;2.03;;
9042;SDS011;4556;49.150;8.808;2022-08-11T03:22:48;3.40;;;2.00;;
9042;SDS011;4556;49.150;8.808;2022-08-11T03:25:24;2.20;;;1.60;;
9042;SDS011;4556;49.150;8.808;2022-08-11T03:28:00;2.50;;;1.70;;
9042;SDS011;4556;49.150;8.808;2022-08-11T03:30:41;3.57;;;1.80;;
9042;SDS011;4556;49.150;8.808;2022-08-11T03:33:17;2.33;;;1.70;;
9042;SDS011;4556;49.150;8.808;2022-08-11T03:36:09;2.43;;;1.63;;
9042;SDS011;4556;49.150;8.808;2022-08-11T03:38:48;1.80;;;1.70;;
9042;SDS011;4556;49.150;8.808;2022-08-11T03:41:31;2.97;;;2.00;;
9042;SDS011;4556;49.150;8.808;2022-08-11T03:44:19;6.47;;;2.30;;
9042;SDS011;4556;49.150;8.808;2022-08-11T03:46:58;2.97;;;2.10;;
9042;SDS011;4556;49.150;8.808;2022-08-11T03:49:58;4.67;;;1.77;;
9042;SDS011;4556;49.150;8.808;2022-08-11T03:52:33;4.13;;;2.33;;
9042;SDS011;4556;49.150;8.808;2022-08-11T03:55:14;3.03;;;1.80;;
9042;SDS011;4556;49.150;8.808;2022-08-11T03:58:00;2.57;;;1.70;;
9042;SDS011;4556;49.150;8.808;2022-08-11T04:04:12;2.83;;;1.80;;
9042;SDS011;4556;49.150;8.808;2022-08-11T04:10:17;4.70;;;2.07;;
9042;SDS011;4556;49.150;8.808;2022-08-11T04:16:43;2.97;;;1.77;;
9042;SDS011;4556;49.150;8.808;2022-08-11T04:22:50;7.03;;;2.10;;
9042;SDS011;4556;49.150;8.808;2022-08-11T04:25:42;4.83;;;2.30;;
9042;SDS011;4556;49.150;8.808;2022-08-11T04:28:51;3.57;;;1.80;;
9042;SDS011;4556;49.150;8.808;2022-08-11T04:31:33;7.37;;;2.30;;
9042;SDS011;4556;49.150;8.808;2022-08-11T04:34:12;4.63;;;1.90;;
9042;SDS011;4556;49.150;8.808;2022-08-11T04:37:09;2.20;;;2.00;;
9042;SDS011;4556;49.150;8.808;2022-08-11T04:49:22;3.77;;;2.03;;
9042;SDS011;4556;49.150;8.808;2022-08-11T04:55:42;4.13;;;2.00;;
9042;SDS011;4556;49.150;8.808;2022-08-11T04:58:50;6.27;;;2.00;;
9042;SDS011;4556;49.150;8.808;2022-08-11T05:01:50;3.80;;;2.00;;
9042;SDS011;4556;49.150;8.808;2022-08-11T05:04:40;4.00;;;2.37;;
9042;SDS011;4556;49.150;8.808;2022-08-11T05:10:53;3.70;;;2.30;;
9042;SDS011;4556;49.150;8.808;2022-08-11T05:13:33;2.90;;;2.10;;
9042;SDS011;4556;49.150;8.808;2022-08-11T05:16:26;6.00;;;2.07;;
9042;SDS011;4556;49.150;8.808;2022-08-11T05:19:14;3.43;;;2.20;;
9042;SDS011;4556;49.150;8.808;2022-08-11T05:22:00;5.37;;;2.17;;
9042;SDS011;4556;49.150;8.808;2022-08-11T05:24:49;3.27;;;2.50;;
9042;SDS011;4556;49.150;8.808;2022-08-11T05:27:43;3.97;;;1.60;;
9042;SDS011;4556;49.150;8.808;2022-08-11T05:30:32;2.43;;;1.80;;
9042;SDS011;4556;49.150;8.808;2022-08-11T05:33:22;4.07;;;1.80;;
9042;SDS011;4556;49.150;8.808;2022-08-11T05:36:16;3.47;;;2.07;;
9042;SDS011;4556;49.150;8.808;2022-08-11T05:41:45;4.87;;;2.00;;
9042;SDS011;4556;49.150;8.808;2022-08-11T05:44:33;6.33;;;2.23;;
9042;SDS011;4556;49.150;8.808;2022-08-11T05:47:23;3.13;;;1.93;;
9042;SDS011;4556;49.150;8.808;2022-08-11T05:50:09;4.03;;;2.17;;
9042;SDS011;4556;49.150;8.808;2022-08-11T05:52:55;4.30;;;1.80;;
9042;SDS011;4556;49.150;8.808;2022-08-11T05:55:41;2.67;;;1.73;;
9042;SDS011;4556;49.150;8.808;2022-08-11T05:58:31;7.20;;;2.07;;
9042;SDS011;4556;49.150;8.808;2022-08-11T06:01:01;7.67;;;2.10;;
9042;SDS011;4556;49.150;8.808;2022-08-11T06:03:29;8.87;;;2.23;;
9042;SDS011;4556;49.150;8.808;2022-08-11T06:06:20;6.63;;;1.83;;
9042;SDS011;4556;49.150;8.808;2022-08-11T06:08:47;3.90;;;1.80;;
9042;SDS011;4556;49.150;8.808;2022-08-11T06:11:14;5.30;;;1.90;;
9042;SDS011;4556;49.150;8.808;2022-08-11T06:13:43;4.40;;;2.13;;
9042;SDS011;4556;49.150;8.808;2022-08-11T06:16:13;4.60;;;2.50;;
9042;SDS011;4556;49.150;8.808;2022-08-11T06:18:46;3.43;;;2.17;;
9042;SDS011;4556;49.150;8.808;2022-08-11T06:21:14;3.77;;;2.00;;
9042;SDS011;4556;49.150;8.808;2022-08-11T06:23:43;5.63;;;1.90;;
9042;SDS011;4556;49.150;8.808;2022-08-11T06:26:11;5.43;;;1.87;;
9042;SDS011;4556;49.150;8.808;2022-08-11T06:28:39;6.53;;;2.10;;
9042;SDS011;4556;49.150;8.808;2022-08-11T06:31:14;3.47;;;1.80;;
9042;SDS011;4556;49.150;8.808;2022-08-11T06:33:47;5.40;;;1.90;;
9042;SDS011;4556;49.150;8.808;2022-08-11T06:36:22;4.40;;;1.87;;
9042;SDS011;4556;49.150;8.808;2022-08-11T06:38:58;3.07;;;2.00;;
9042;SDS011;4556;49.150;8.808;2022-08-11T06:41:36;5.03;;;2.33;;
9042;SDS011;4556;49.150;8.808;2022-08-11T06:44:14;2.63;;;1.80;;
9042;SDS011;4556;49.150;8.808;2022-08-11T06:46:46;4.30;;;1.70;;
9042;SDS011;4556;49.150;8.808;2022-08-11T06:49:16;4.83;;;1.90;;
9042;SDS011;4556;49.150;8.808;2022-08-11T06:52:04;3.60;;;1.93;;
9042;SDS011;4556;49.150;8.808;2022-08-11T06:54:33;1.90;;;1.63;;
9042;SDS011;4556;49.150;8.808;2022-08-11T06:57:05;5.77;;;1.83;;
9042;SDS011;4556;49.150;8.808;2022-08-11T06:59:52;3.67;;;1.90;;
9042;SDS011;4556;49.150;8.808;2022-08-11T07:02:46;4.33;;;1.63;;
9042;SDS011;4556;49.150;8.808;2022-08-11T07:05:20;2.07;;;1.70;;
9042;SDS011;4556;49.150;8.808;2022-08-11T07:11:27;3.67;;;2.13;;
9042;SDS011;4556;49.150;8.808;2022-08-11T07:14:31;4.07;;;1.80;;
9042;SDS011;4556;49.150;8.808;2022-08-11T07:17:18;3.33;;;2.17;;
9042;SDS011;4556;49.150;8.808;2022-08-11T07:19:50;10.53;;;2.27;;
9042;SDS011;4556;49.150;8.808;2022-08-11T07:22:37;4.97;;;1.97;;
9042;SDS011;4556;49.150;8.808;2022-08-11T07:25:22;4.13;;;1.90;;
9042;SDS011;4556;49.150;8.808;2022-08-11T07:28:16;2.57;;;1.90;;
9042;SDS011;4556;49.150;8.808;2022-08-11T07:31:06;4.13;;;1.83;;
9042;SDS011;4556;49.150;8.808;2022-08-11T07:33:39;4.10;;;1.77;;
9042;SDS011;4556;49.150;8.808;2022-08-11T07:36:12;5.83;;;2.43;;
9042;SDS011;4556;49.150;8.808;2022-08-11T07:38:42;4.03;;;2.00;;
9042;SDS011;4556;49.150;8.808;2022-08-11T07:41:15;5.57;;;1.97;;
9042;SDS011;4556;49.150;8.808;2022-08-11T07:43:46;3.37;;;1.90;;
9042;SDS011;4556;49.150;8.808;2022-08-11T07:46:15;2.60;;;2.07;;
9042;SDS011;4556;49.150;8.808;2022-08-11T07:49:01;5.77;;;1.87;;
9042;SDS011;4556;49.150;8.808;2022-08-11T07:51:48;13.60;;;2.30;;
9042;SDS011;4556;49.150;8.808;2022-08-11T07:54:34;3.93;;;2.20;;
9042;SDS011;4556;49.150;8.808;2022-08-11T07:57:02;3.90;;;1.93;;
9042;SDS011;4556;49.150;8.808;2022-08-11T07:59:50;3.57;;;2.13;;
9042;SDS011;4556;49.150;8.808;2022-08-11T08:02:36;5.47;;;1.90;;
9042;SDS011;4556;49.150;8.808;2022-08-11T08:05:21;2.87;;;1.90;;
9042;SDS011;4556;49.150;8.808;2022-08-11T08:08:07;3.97;;;2.10;;
9042;SDS011;4556;49.150;8.808;2022-08-11T08:10:52;3.13;;;1.90;;
9042;SDS011;4556;49.150;8.808;2022-08-11T08:13:39;3.80;;;1.90;;
9042;SDS011;4556;49.150;8.808;2022-08-11T08:16:25;4.63;;;1.93;;
9042;SDS011;4556;49.150;8.808;2022-08-11T08:19:10;6.43;;;2.50;;
9042;SDS011;4556;49.150;8.808;2022-08-11T08:21:40;6.73;;;1.97;;
9042;SDS011;4556;49.150;8.808;2022-08-11T08:24:08;5.17;;;2.00;;
9042;SDS011;4556;49.150;8.808;2022-08-11T08:26:37;2.63;;;2.00;;
9042;SDS011;4556;49.150;8.808;2022-08-11T08:29:24;11.90;;;2.30;;
9042;SDS011;4556;49.150;8.808;2022-08-11T08:32:10;10.37;;;2.40;;
9042;SDS011;4556;49.150;8.808;2022-08-11T08:34:40;5.17;;;1.90;;
9042;SDS011;4556;49.150;8.808;2022-08-11T08:37:08;2.60;;;2.10;;
9042;SDS011;4556;49.150;8.808;2022-08-11T08:39:37;2.37;;;1.90;;
9042;SDS011;4556;49.150;8.808;2022-08-11T08:42:05;6.10;;;2.00;;
9042;SDS011;4556;49.150;8.808;2022-08-11T08:44:38;5.00;;;1.80;;
9042;SDS011;4556;49.150;8.808;2022-08-11T08:47:10;4.97;;;2.10;;
9042;SDS011;4556;49.150;8.808;2022-08-11T08:49:42;4.37;;;1.97;;
9042;SDS011;4556;49.150;8.808;2022-08-11T08:52:14;5.23;;;2.03;;
9042;SDS011;4556;49.150;8.808;2022-08-11T08:54:47;5.20;;;2.20;;
9042;SDS011;4556;49.150;8.808;2022-08-11T08:57:18;3.27;;;1.90;;
9042;SDS011;4556;49.150;8.808;2022-08-11T08:59:48;3.83;;;2.13;;
9042;SDS011;4556;49.150;8.808;2022-08-11T09:02:16;2.67;;;1.80;;
9042;SDS011;4556;49.150;8.808;2022-08-11T09:04:45;3.27;;;1.73;;
9042;SDS011;4556;49.150;8.808;2022-08-11T09:07:14;2.27;;;1.73;;
9042;SDS011;4556;49.150;8.808;2022-08-11T09:09:42;2.13;;;1.60;;
9042;SDS011;4556;49.150;8.808;2022-08-11T09:12:13;10.03;;;2.00;;
9042;SDS011;4556;49.150;8.808;2022-08-11T09:14:42;2.50;;;1.73;;
9042;SDS011;4556;49.150;8.808;2022-08-11T09:17:28;2.53;;;1.90;;
9042;SDS011;4556;49.150;8.808;2022-08-11T09:19:58;4.33;;;2.03;;
9042;SDS011;4556;49.150;8.808;2022-08-11T09:22:26;4.40;;;2.00;;
9042;SDS011;4556;49.150;8.808;2022-08-11T09:25:12;3.77;;;2.00;;
9042;SDS011;4556;49.150;8.808;2022-08-11T09:27:59;4.30;;;1.90;;
9042;SDS011;4556;49.150;8.808;2022-08-11T09:30:29;3.83;;;1.70;;
9042;SDS011;4556;49.150;8.808;2022-08-11T09:32:57;4.03;;;1.83;;
9042;SDS011;4556;49.150;8.808;2022-08-11T09:35:26;4.90;;;1.47;;
9042;SDS011;4556;49.150;8.808;2022-08-11T09:37:56;3.30;;;1.80;;
9042;SDS011;4556;49.150;8.808;2022-08-11T09:40:41;4.85;;;1.80;;
9042;SDS011;4556;49.150;8.808;2022-08-11T09:43:13;3.50;;;1.63;;
9042;SDS011;4556;49.150;8.808;2022-08-11T09:46:00;4.53;;;1.73;;
9042;SDS011;4556;49.150;8.808;2022-08-11T09:48:28;2.67;;;1.42;;
9042;SDS011;4556;49.150;8.808;2022-08-11T09:50:58;3.78;;;1.50;;
9042;SDS011;4556;49.150;8.808;2022-08-11T09:53:27;3.50;;;1.50;;
9042;SDS011;4556;49.150;8.808;2022-08-11T09:55:57;3.78;;;1.50;;
9042;SDS011;4556;49.150;8.808;2022-08-11T09:58:47;3.20;;;1.33;;
9042;SDS011;4556;49.150;8.808;2022-08-11T10:01:13;5.35;;;1.90;;
9042;SDS011;4556;49.150;8.808;2022-08-11T10:03:52;5.03;;;1.70;;
9042;SDS011;4556;49.150;8.808;2022-08-11T10:06:24;9.63;;;1.95;;
9042;SDS011;4556;49.150;8.808;2022-08-11T10:09:10;2.90;;;1.60;;
9042;SDS011;4556;49.150;8.808;2022-08-11T10:11:42;2.92;;;1.63;;
9042;SDS011;4556;49.150;8.808;2022-08-11T10:14:12;4.68;;;1.50;;
9042;SDS011;4556;49.150;8.808;2022-08-11T10:17:02;3.83;;;1.20;;
9042;SDS011;4556;49.150;8.808;2022-08-11T10:19:33;2.58;;;1.23;;
9042;SDS011;4556;49.150;8.808;2022-08-11T10:22:02;3.30;;;1.40;;
9042;SDS011;4556;49.150;8.808;2022-08-11T10:24:48;2.17;;;1.35;;
9042;SDS011;4556;49.150;8.808;2022-08-11T10:27:34;1.98;;;1.33;;
9042;SDS011;4556;49.150;8.808;2022-08-11T10:30:04;3.85;;;1.20;;
9042;SDS011;4556;49.150;8.808;2022-08-11T10:32:50;2.33;;;1.10;;
9042;SDS011;4556;49.150;8.808;2022-08-11T10:35:35;4.18;;;1.42;;
9042;SDS011;4556;49.150;8.808;2022-08-11T10:38:03;3.90;;;1.30;;
9042;SDS011;4556;49.150;8.808;2022-08-11T10:40:30;3.45;;;1.50;;
9042;SDS011;4556;49.150;8.808;2022-08-11T10:42:59;2.25;;;1.40;;
9042;SDS011;4556;49.150;8.808;2022-08-11T10:45:29;2.17;;;1.45;;
9042;SDS011;4556;49.150;8.808;2022-08-11T10:48:18;2.13;;;1.35;;
9042;SDS011;4556;49.150;8.808;2022-08-11T10:50:48;2.10;;;1.50;;
9042;SDS011;4556;49.150;8.808;2022-08-11T10:53:34;2.15;;;1.42;;
9042;SDS011;4556;49.150;8.808;2022-08-11T10:56:21;4.45;;;1.30;;
9042;SDS011;4556;49.150;8.808;2022-08-11T10:59:06;3.28;;;1.40;;
9042;SDS011;4556;49.150;8.808;2022-08-11T11:01:36;3.65;;;1.48;;
9042;SDS011;4556;49.150;8.808;2022-08-11T11:04:07;3.47;;;1.27;;
9042;SDS011;4556;49.150;8.808;2022-08-11T11:06:39;3.10;;;1.50;;
9042;SDS011;4556;49.150;8.808;2022-08-11T11:09:16;7.90;;;1.63;;
9042;SDS011;4556;49.150;8.808;2022-08-11T11:11:47;1.23;;;1.13;;
9042;SDS011;4556;49.150;8.808;2022-08-11T11:14:34;2.17;;;1.52;;
9042;SDS011;4556;49.150;8.808;2022-08-11T11:17:25;1.60;;;1.30;;
9042;SDS011;4556;49.150;8.808;2022-08-11T11:20:12;3.30;;;1.17;;
9042;SDS011;4556;49.150;8.808;2022-08-11T11:22:44;5.20;;;1.50;;
9042;SDS011;4556;49.150;8.808;2022-08-11T11:25:20;2.35;;;1.30;;
9042;SDS011;4556;49.150;8.808;2022-08-11T11:28:00;2.50;;;1.00;;
9042;SDS011;4556;49.150;8.808;2022-08-11T11:30:40;2.40;;;1.45;;
9042;SDS011;4556;49.150;8.808;2022-08-11T11:33:17;1.15;;;1.05;;
9042;SDS011;4556;49.150;8.808;2022-08-11T11:35:55;3.42;;;1.40;;
9042;SDS011;4556;49.150;8.808;2022-08-11T11:38:34;1.67;;;1.33;;
9042;SDS011;4556;49.150;8.808;2022-08-11T11:41:02;1.95;;;1.02;;
9042;SDS011;4556;49.150;8.808;2022-08-11T11:43:43;2.47;;;1.38;;
9042;SDS011;4556;49.150;8.808;2022-08-11T11:46:11;4.18;;;1.15;;
9042;SDS011;4556;49.150;8.808;2022-08-11T11:48:40;5.10;;;1.60;;
9042;SDS011;4556;49.150;8.808;2022-08-11T11:51:08;1.48;;;1.17;;
9042;SDS011;4556;49.150;8.808;2022-08-11T11:53:38;2.20;;;1.35;;
9042;SDS011;4556;49.150;8.808;2022-08-11T11:56:07;3.67;;;1.38;;
9042;SDS011;4556;49.150;8.808;2022-08-11T11:58:37;2.17;;;1.10;;
9042;SDS011;4556;49.150;8.808;2022-08-11T12:01:24;3.28;;;1.33;;
9042;SDS011;4556;49.150;8.808;2022-08-11T12:03:54;9.55;;;1.60;;
9042;SDS011;4556;49.150;8.808;2022-08-11T12:06:22;5.72;;;1.55;;
9042;SDS011;4556;49.150;8.808;2022-08-11T12:08:53;2.65;;;1.20;;
9042;SDS011;4556;49.150;8.808;2022-08-11T12:11:23;2.45;;;1.20;;
9042;SDS011;4556;49.150;8.808;2022-08-11T12:14:11;5.05;;;1.33;;
9042;SDS011;4556;49.150;8.808;2022-08-11T12:16:42;2.92;;;1.38;;
9042;SDS011;4556;49.150;8.808;2022-08-11T12:19:13;3.03;;;1.33;;
9042;SDS011;4556;49.150;8.808;2022-08-11T12:21:42;3.60;;;1.45;;
9042;SDS011;4556;49.150;8.808;2022-08-11T12:24:23;1.67;;;1.20;;
9042;SDS011;4556;49.150;8.808;2022-08-11T12:27:09;2.00;;;1.17;;
9042;SDS011;4556;49.150;8.808;2022-08-11T12:29:46;1.35;;;1.00;;
9042;SDS011;4556;49.150;8.808;2022-08-11T12:32:15;1.38;;;1.27;;
9042;SDS011;4556;49.150;8.808;2022-08-11T12:34:44;3.35;;;1.35;;
9042;SDS011;4556;49.150;8.808;2022-08-11T12:37:12;6.90;;;1.38;;
9042;SDS011;4556;49.150;8.808;2022-08-11T12:39:42;1.90;;;1.25;;
9042;SDS011;4556;49.150;8.808;2022-08-11T12:42:29;1.63;;;1.00;;
9042;SDS011;4556;49.150;8.808;2022-08-11T12:45:16;2.83;;;1.25;;
9042;SDS011;4556;49.150;8.808;2022-08-11T12:48:05;3.33;;;1.40;;
9042;SDS011;4556;49.150;8.808;2022-08-11T12:50:54;1.92;;;1.25;;
9042;SDS011;4556;49.150;8.808;2022-08-11T12:53:44;3.15;;;1.42;;
9042;SDS011;4556;49.150;8.808;2022-08-11T12:56:19;5.40;;;1.25;;
9042;SDS011;4556;49.150;8.808;2022-08-11T12:59:16;2.53;;;1.52;;
9042;SDS011;4556;49.150;8.808;2022-08-11T13:02:01;3.88;;;1.50;;
9042;SDS011;4556;49.150;8.808;2022-08-11T13:04:46;1.52;;;1.13;;
9042;SDS011;4556;49.150;8.808;2022-08-11T13:07:25;3.42;;;1.20;;
9042;SDS011;4556;49.150;8.808;2022-08-11T13:09:53;2.03;;;1.40;;
9042;SDS011;4556;49.150;8.808;2022-08-11T13:12:21;4.30;;;1.45;;
9042;SDS011;4556;49.150;8.808;2022-08-11T13:15:08;3.92;;;1.27;;
9042;SDS011;4556;49.150;8.808;2022-08-11T13:17:36;3.95;;;1.50;;
9042;SDS011;4556;49.150;8.808;2022-08-11T13:20:06;4.30;;;1.10;;
9042;SDS011;4556;49.150;8.808;2022-08-11T13:22:38;1.33;;;1.23;;
9042;SDS011;4556;49.150;8.808;2022-08-11T13:25:10;1.45;;;1.20;;
9042;SDS011;4556;49.150;8.808;2022-08-11T13:27:40;2.47;;;1.20;;
9042;SDS011;4556;49.150;8.808;2022-08-11T13:30:08;4.07;;;1.40;;
9042;SDS011;4556;49.150;8.808;2022-08-11T13:32:53;3.13;;;1.33;;
9042;SDS011;4556;49.150;8.808;2022-08-11T13:35:21;2.63;;;1.25;;
9042;SDS011;4556;49.150;8.808;2022-08-11T13:37:50;2.15;;;1.33;;
9042;SDS011;4556;49.150;8.808;2022-08-11T13:40:18;3.30;;;1.20;;
9042;SDS011;4556;49.150;8.808;2022-08-11T13:42:49;5.13;;;1.00;;
9042;SDS011;4556;49.150;8.808;2022-08-11T13:45:18;3.70;;;1.50;;
9042;SDS011;4556;49.150;8.808;2022-08-11T13:47:47;1.90;;;1.33;;
9042;SDS011;4556;49.150;8.808;2022-08-11T13:50:17;2.25;;;1.20;;
9042;SDS011;4556;49.150;8.808;2022-08-11T13:52:44;1.65;;;1.02;;
9042;SDS011;4556;49.150;8.808;2022-08-11T13:55:14;3.85;;;1.35;;
9042;SDS011;4556;49.150;8.808;2022-08-11T13:57:47;2.03;;;1.35;;
9042;SDS011;4556;49.150;8.808;2022-08-11T14:00:18;1.67;;;1.30;;
9042;SDS011;4556;49.150;8.808;2022-08-11T14:02:47;2.80;;;1.45;;
9042;SDS011;4556;49.150;8.808;2022-08-11T14:05:17;3.25;;;1.63;;
9042;SDS011;4556;49.150;8.808;2022-08-11T14:07:48;5.32;;;1.60;;
9042;SDS011;4556;49.150;8.808;2022-08-11T14:10:22;1.88;;;1.50;;
9042;SDS011;4556;49.150;8.808;2022-08-11T14:12:56;2.78;;;1.60;;
9042;SDS011;4556;49.150;8.808;2022-08-11T14:15:44;2.35;;;1.73;;
9042;SDS011;4556;49.150;8.808;2022-08-11T14:18:16;2.67;;;1.80;;
9042;SDS011;4556;49.150;8.808;2022-08-11T14:20:46;3.83;;;2.20;;
9042;SDS011;4556;49.150;8.808;2022-08-11T14:23:36;2.15;;;1.70;;
9042;SDS011;4556;49.150;8.808;2022-08-11T14:26:08;2.95;;;1.80;;
9042;SDS011;4556;49.150;8.808;2022-08-11T14:28:52;2.33;;;1.80;;
9042;SDS011;4556;49.150;8.808;2022-08-11T14:31:21;2.78;;;1.50;;
9042;SDS011;4556;49.150;8.808;2022-08-11T14:33:51;4.80;;;1.90;;
9042;SDS011;4556;49.150;8.808;2022-08-11T14:36:21;2.80;;;1.80;;
9042;SDS011;4556;49.150;8.808;2022-08-11T14:38:50;3.20;;;1.55;;
9042;SDS011;4556;49.150;8.808;2022-08-11T14:41:20;4.35;;;1.85;;
9042;SDS011;4556;49.150;8.808;2022-08-11T14:44:07;1.67;;;1.58;;
9042;SDS011;4556;49.150;8.808;2022-08-11T14:46:53;4.40;;;1.60;;
9042;SDS011;4556;49.150;8.808;2022-08-11T14:49:32;1.70;;;1.40;;
9042;SDS011;4556;49.150;8.808;2022-08-11T14:52:02;2.53;;;1.25;;
9042;SDS011;4556;49.150;8.808;2022-08-11T14:54:32;2.08;;;1.10;;
9042;SDS011;4556;49.150;8.808;2022-08-11T14:57:19;3.20;;;1.45;;
9042;SDS011;4556;49.150;8.808;2022-08-11T14:59:48;4.10;;;1.45;;
9042;SDS011;4556;49.150;8.808;2022-08-11T15:02:17;4.65;;;1.42;;
9042;SDS011;4556;49.150;8.808;2022-08-11T15:05:02;1.63;;;1.40;;
9042;SDS011;4556;49.150;8.808;2022-08-11T15:07:31;3.63;;;1.33;;
9042;SDS011;4556;49.150;8.808;2022-08-11T15:09:59;4.57;;;1.40;;
9042;SDS011;4556;49.150;8.808;2022-08-11T15:12:29;1.48;;;1.17;;
9042;SDS011;4556;49.150;8.808;2022-08-11T15:14:57;4.90;;;1.35;;
9042;SDS011;4556;49.150;8.808;2022-08-11T15:17:42;2.35;;;1.10;;
9042;SDS011;4556;49.150;8.808;2022-08-11T15:20:13;3.90;;;1.30;;
9042;SDS011;4556;49.150;8.808;2022-08-11T15:23:00;3.08;;;1.20;;
9042;SDS011;4556;49.150;8.808;2022-08-11T15:25:48;1.85;;;1.15;;
9042;SDS011;4556;49.150;8.808;2022-08-11T15:28:22;3.72;;;1.35;;
9042;SDS011;4556;49.150;8.808;2022-08-11T15:31:09;1.95;;;1.13;;
9042;SDS011;4556;49.150;8.808;2022-08-11T15:34:02;4.72;;;1.25;;
9042;SDS011;4556;49.150;8.808;2022-08-11T15:36:49;2.08;;;1.38;;
9042;SDS011;4556;49.150;8.808;2022-08-11T15:39:41;2.50;;;1.10;;
9042;SDS011;4556;49.150;8.808;2022-08-11T15:42:27;2.50;;;1.33;;
9042;SDS011;4556;49.150;8.808;2022-08-11T15:45:16;6.78;;;1.40;;
9042;SDS011;4556;49.150;8.808;2022-08-11T15:48:05;2.00;;;1.10;;
9042;SDS011;4556;49.150;8.808;2022-08-11T15:50:37;1.90;;;1.20;;
9042;SDS011;4556;49.150;8.808;2022-08-11T15:53:07;1.42;;;1.20;;
9042;SDS011;4556;49.150;8.808;2022-08-11T15:55:38;1.95;;;1.27;;
9042;SDS011;4556;49.150;8.808;2022-08-11T15:58:07;2.08;;;1.30;;
9042;SDS011;4556;49.150;8.808;2022-08-11T16:00:56;1.60;;;1.30;;
9042;SDS011;4556;49.150;8.808;2022-08-11T16:03:43;2.20;;;1.23;;
9042;SDS011;4556;49.150;8.808;2022-08-11T16:06:32;2.28;;;1.25;;
9042;SDS011;4556;49.150;8.808;2022-08-11T16:09:00;2.10;;;1.30;;
9042;SDS011;4556;49.150;8.808;2022-08-11T16:11:30;2.38;;;1.30;;
9042;SDS011;4556;49.150;8.808;2022-08-11T16:13:59;2.15;;;1.13;;
9042;SDS011;4556;49.150;8.808;2022-08-11T16:16:49;3.38;;;1.40;;
9042;SDS011;4556;49.150;8.808;2022-08-11T16:19:18;2.95;;;1.10;;
9042;SDS011;4556;49.150;8.808;2022-08-11T16:21:48;2.30;;;1.10;;
9042;SDS011;4556;49.150;8.808;2022-08-11T16:24:18;3.28;;;1.25;;
9042;SDS011;4556;49.150;8.808;2022-08-11T16:26:47;2.22;;;1.33;;
9042;SDS011;4556;49.150;8.808;2022-08-11T16:29:19;3.47;;;1.20;;
9042;SDS011;4556;49.150;8.808;2022-08-11T16:31:50;2.83;;;1.20;;
9042;SDS011;4556;49.150;8.808;2022-08-11T16:34:33;2.72;;;1.20;;
9042;SDS011;4556;49.150;8.808;2022-08-11T16:37:18;3.33;;;1.30;;
9042;SDS011;4556;49.150;8.808;2022-08-11T16:40:04;2.58;;;1.33;;
9042;SDS011;4556;49.150;8.808;2022-08-11T16:42:33;2.33;;;1.25;;
9042;SDS011;4556;49.150;8.808;2022-08-11T16:45:18;2.40;;;1.30;;
9042;SDS011;4556;49.150;8.808;2022-08-11T16:48:19;2.50;;;1.20;;
9042;SDS011;4556;49.150;8.808;2022-08-11T16:50:47;4.05;;;1.67;;
9042;SDS011;4556;49.150;8.808;2022-08-11T16:53:16;2.58;;;1.25;;
9042;SDS011;4556;49.150;8.808;2022-08-11T16:55:43;3.30;;;1.33;;
9042;SDS011;4556;49.150;8.808;2022-08-11T16:58:14;6.40;;;1.40;;
9042;SDS011;4556;49.150;8.808;2022-08-11T17:00:59;1.95;;;1.17;;
9042;SDS011;4556;49.150;8.808;2022-08-11T17:03:29;2.65;;;1.20;;
9042;SDS011;4556;49.150;8.808;2022-08-11T17:06:15;3.08;;;1.30;;
9042;SDS011;4556;49.150;8.808;2022-08-11T17:09:00;3.95;;;1.33;;
9042;SDS011;4556;49.150;8.808;2022-08-11T17:11:49;2.28;;;1.20;;
9042;SDS011;4556;49.150;8.808;2022-08-11T17:14:38;3.30;;;1.20;;
9042;SDS011;4556;49.150;8.808;2022-08-11T17:17:11;1.83;;;1.45;;
9042;SDS011;4556;49.150;8.808;2022-08-11T17:19:43;1.67;;;1.40;;
9042;SDS011;4556;49.150;8.808;2022-08-11T17:22:13;2.75;;;1.23;;
9042;SDS011;4556;49.150;8.808;2022-08-11T17:24:59;5.40;;;1.60;;
9042;SDS011;4556;49.150;8.808;2022-08-11T17:27:28;2.67;;;1.30;;
9042;SDS011;4556;49.150;8.808;2022-08-11T17:29:58;2.35;;;1.23;;
9042;SDS011;4556;49.150;8.808;2022-08-11T17:32:29;2.17;;;1.27;;